X  Κλείσιμο Στοιχεία αεροπορικών μετεωρολογικών δεδομένων METAR        LGEL Elefsis Airport
Θερμοκρασία
2°C Θερμοκρασία
-1°C Σημείο δρόσου
80% Υγρασία



Aνεμος
11 KM/H
7 MPH
3 M/S
6 KTS



310°
ΒΔ
Τρέχουσες συνθήκες

Partly Cloudy with Scattered Snow Showers Μερικώς συννεφιασμένος , Διεσπαρμένος Χιόνι καταιγισμός
Πίεση 1027 (hPa) - 30.33 (inHg)
Ορατότητα 5 (μίλι) - 8 (km)
Aεροδρόμιο
Κωδικός αεροδρομίου LGEL

Τοποθεσία: Elefsis Airport
Απόσταση: 77 (km)

Metar:
METAR LGEL 070450Z 31006KT 8000 -SN FEW012 SCT020 02/M01 Q1027

Ωρα: 07-02-2023 06:50 EET